CDT,Max TemperatureF,Mean TemperatureF,Min TemperatureF,Max Dew PointF,MeanDew PointF,Min DewpointF,Max Humidity, Mean Humidity, Min Humidity, Max Sea Level PressureIn, Mean Sea Level PressureIn, Min Sea Level PressureIn, Max VisibilityMiles, Mean VisibilityMiles, Min VisibilityMiles, Max Wind SpeedMPH, Mean Wind SpeedMPH, Max Gust SpeedMPH,PrecipitationIn, CloudCover, Events, WindDirDegrees
2013-5-1,42,37,31,37,30,27,92,84,75,30.62,30.30,29.97,10,6,1,29,14,37,0.82,8,Rain-Snow-Thunderstorm,14
2013-5-2,54,42,29,30,26,20,92,61,29,30.71,30.61,30.48,10,10,2,23,7,30,T,4,Rain,318
2013-5-3,60,41,22,31,24,18,96,59,21,30.46,30.27,30.13,10,10,10,21,8,28,0.00,0,,3
2013-5-4,58,41,23,24,21,18,81,51,21,30.27,30.19,30.14,10,10,10,23,11,32,0.00,0,,4
2013-5-5,65,44,22,27,22,16,81,49,16,30.28,30.21,30.13,10,10,10,15,6,20,0.00,0,,328
2013-5-6,71,52,33,43,34,28,89,56,23,30.14,30.07,29.99,10,10,7,16,6,21,0.00,1,,133
2013-5-7,69,59,49,50,46,35,86,66,45,29.99,29.94,29.86,10,10,8,21,11,28,T,5,Rain,133
2013-5-8,75,61,46,51,47,41,96,65,33,30.00,29.92,29.86,10,9,4,29,9,39,0.47,3,Rain-Thunderstorm,9
2013-5-9,64,53,42,52,47,41,96,74,52,30.13,30.05,29.94,10,9,3,20,9,24,0.01,6,Rain,17
2013-5-10,72,55,37,51,44,35,92,66,40,30.16,30.12,30.06,10,9,2,29,3,35,0.09,4,Rain-Thunderstorm,303
2013-5-11,67,53,38,44,33,27,79,52,24,30.39,30.28,30.17,10,10,10,20,10,28,0.00,2,,8
2013-5-12,76,58,39,45,37,30,70,47,23,30.24,30.11,30.01,10,10,10,14,7,20,0.00,1,,116
2013-5-13,93,71,48,53,48,44,86,53,20,30.03,29.93,29.83,10,10,10,15,5,21,0.00,0,,208
2013-5-14,97,73,49,52,45,40,77,46,14,29.81,29.74,29.67,10,10,10,17,8,24,0.00,0,,359
2013-5-15,81,68,54,42,41,37,61,44,26,29.88,29.82,29.77,10,10,10,26,13,32,0.00,0,,83
2013-5-16,81,66,51,59,51,40,93,68,42,29.85,29.78,29.72,10,10,7,36,7,46,0.04,3,Rain-Thunderstorm,114
2013-5-17,87,67,47,60,54,46,93,63,32,29.86,29.78,29.70,10,10,6,23,10,32,0.00,0,,135
2013-5-18,81,70,58,65,60,49,87,73,58,29.80,29.71,29.54,10,8,2,44,11,55,T,6,Rain,121
2013-5-19,66,61,56,55,53,49,86,77,67,29.76,29.67,29.57,10,10,4,22,11,29,0.19,8,Rain-Thunderstorm,295
2013-5-20,65,58,50,54,49,45,93,71,48,29.78,29.70,29.64,10,9,2,33,17,43,0.19,7,Rain,287
2013-5-21,61,54,46,45,42,40,86,69,51,29.91,29.83,29.78,10,10,10,33,18,41,T,6,,323
2013-5-22,70,59,47,48,44,41,86,67,48,30.08,29.94,29.86,10,10,10,20,13,25,0.00,6,,342
2013-5-23,68,55,42,48,45,41,93,71,48,30.20,30.15,30.09,10,10,10,23,11,30,0.00,4,,87
2013-5-24,81,68,55,61,53,48,86,67,48,30.13,30.02,29.87,10,10,7,30,14,39,0.28,7,Rain-Thunderstorm,148
2013-5-25,87,73,58,64,57,51,78,59,40,29.98,29.87,29.75,10,10,10,25,12,33,T,3,Rain-Thunderstorm,121
2013-5-26,87,76,64,66,62,50,87,66,45,29.78,29.73,29.64,10,10,9,21,10,25,0.00,1,,117
2013-5-27,75,65,54,64,59,52,100,82,64,29.82,29.71,29.60,10,7,1,40,8,49,0.25,6,Rain-Thunderstorm,98
2013-5-28,78,65,51,59,55,50,96,72,48,29.80,29.69,29.55,10,10,9,22,7,28,0.00,3,,94
2013-5-29,74,64,53,62,55,50,93,79,64,29.71,29.53,29.32,10,9,2,29,8,38,0.78,6,Rain-Thunderstorm,98
2013-5-30,76,63,50,52,48,38,93,59,25,29.67,29.53,29.48,10,10,7,25,10,33,T,1,Rain,263
2013-5-31,72,60,48,47,43,39,80,58,35,29.82,29.72,29.68,10,10,2,32,19,48,T,3,,283